Rosedale, IN (47874)

22:08 EDT le 21 septembre 2014 (GMT -0400)
GUITAR LAKE | Change Station
CLOSE
Current Station
Stations météorologiques personnelles
Location: BRAZIL, IN
Altitude: 650 ft
Stations météo à proximité

Alt. 650 ft 39.48 °N, 87.17 °W | Updated 2 seconds ago

Ciel dégagé
Ciel dégagé
54.5 ° F
Paraît 54.5 ° F
N
0.0
Vent Variable Vent de Ouest
Gusts 0.7 mph

Aujourd'hui
Haut(e) -- | Bas -- ° F
--% Risque de précip.
Hier
Haut(e) -- | Bas -- ° F
Precip. -- pouce
7:35 AM 7:47 PM
Lune descendante, 4% visible
Pression 30.08 pouce
Visibilité 10.0 Miles terrestres
Nuages Ciel dégagé
Point de rosée 53 ° F
Humidité 96%
Précipitations 0.11 pouce
Profondeur de la couche neigeuse Non disponible.
UV 0 sur 12
Pollen 5.40 sur 12
Qualité de l'air Non disponible.
Flu Activity Non disponible.
METAR KHUF 220153Z 28004KT 10SM CLR 13/10 A3008 RMK AO2 SLP185 T01330100

More Conditions Fewer Conditions

Pression 30.08 pouce
Visibilité 10.0 Miles terrestres
Nuages Ciel dégagé
Point de rosée 53 ° F
Humidité 96%
Précipitations 0.11 pouce
Profondeur de la couche neigeuse Non disponible.
UV 0 sur 12
Pollen 5.40 sur 12
Qualité de l'air Non disponible.
Flu Activity Non disponible.
METAR KHUF 220153Z 28004KT 10SM CLR 13/10 A3008 RMK AO2 SLP185 T01330100

More Conditions Fewer Conditions

10-Day Weather Forecast

Almanac

Astronomie

Sep. 21, 2014 Lever Coucher
Temps réel 07:35 EDT 19:47 EDT
Crépuscule civil 07:08 EDT 20:14 EDT
Crépuscule nautique 06:37 EDT 20:46 EDT
Crépuscule astronomique 06:05 EDT 21:18 EDT
Lune 05:09 EDT (9/21) 18:23 EDT (9/21)
Durée de lumière visible 13h 05m
Longueur du jour
12h 11m
Tomorrow will be 2m 34s shorter.
Lune descendante, 4% of the Moon is Illuminated
Aujourd'hui
Lune descendante
Sep 24
Nouveau
Oct 1
Premier quartier
Oct 8
Pleine lune
Oct 15
Dernier quartier

Extrêmes aujourd'hui

State Highs State Lows

Community

WunderPhotos

Upload Photos

1,755,347 Photos téléchargées !

WunderBlogs® & News

Nearby

Épaisseur de neige

Station Depth Altitude
Pas de nouvelles chutes de neige

Activité sismique

Ville Distance Mag. Time & Date
No recent earthquake activity has been reported nearby.
Minimum magnitude displayed is 2.5.

Températures des eaux côtières

Lieu Température
Aucun rapport de station

Stations météo à proximité